Time;durP1;ratioP1;P1;durP2;ratioP2;P2;SDS_P1;SDS_P2;PMS_P1;PMS_P2;Temp;Humidity;BMP_temperature;BMP_pressure;BME280_temperature;BME280_humidity;BME280_pressure;Samples;Min_cycle;Max_cycle;Signal;HPM_P1;HPM_P2
2024/02/01 00:00:54;;;;;;;8.03;6.37;;;8.00;99.90;;;;;;5030054;28;20429;-67
2024/02/01 00:03:20;;;;;;;9.40;6.67;;;8.00;99.90;;;;;;5029890;28;20340;-67
2024/02/01 00:05:46;;;;;;;8.40;6.90;;;8.00;99.90;;;;;;5028953;28;20460;-68
2024/02/01 00:08:11;;;;;;;10.00;6.10;;;8.00;99.90;;;;;;5027829;28;20186;-69
2024/02/01 00:24:05;;;;;;;7.30;6.40;;;8.10;99.90;;;;;;5026816;28;20508;-68
2024/02/01 00:40:00;;;;;;;7.83;6.87;;;8.00;99.90;;;;;;5030116;28;20495;-67
2024/02/01 00:42:26;;;;;;;8.73;6.70;;;8.00;99.90;;;;;;5026567;28;20425;-67
2024/02/01 00:44:52;;;;;;;6.93;6.20;;;8.10;99.90;;;;;;5029585;28;20421;-65
2024/02/01 00:47:17;;;;;;;9.13;6.87;;;8.10;99.90;;;;;;5026562;28;20432;-64
2024/02/01 00:49:43;;;;;;;8.97;6.67;;;8.10;99.90;;;;;;5030849;28;20182;-66
2024/02/01 00:52:08;;;;;;;9.07;7.67;;;8.10;99.90;;;;;;5028111;28;20970;-64
2024/02/01 00:54:37;;;;;;;9.10;7.23;;;8.10;99.90;;;;;;5029943;28;20393;-65
2024/02/01 00:57:04;;;;;;;9.60;7.20;;;8.10;99.90;;;;;;5027647;28;20196;-67
2024/02/01 00:59:29;;;;;;;9.63;7.27;;;8.10;99.90;;;;;;5030337;28;20452;-65
2024/02/01 01:01:55;;;;;;;10.27;7.80;;;8.10;99.90;;;;;;5026409;28;20451;-68
2024/02/01 01:04:21;;;;;;;10.30;7.63;;;8.10;99.90;;;;;;5030507;28;20198;-68
2024/02/01 01:06:46;;;;;;;12.30;8.57;;;8.10;99.90;;;;;;5033680;28;20189;-67
2024/02/01 01:09:12;;;;;;;8.63;7.27;;;8.10;99.90;;;;;;5032835;28;20190;-66
2024/02/01 01:11:38;;;;;;;11.27;8.57;;;8.20;99.90;;;;;;5033093;28;20178;-66
2024/02/01 01:14:04;;;;;;;11.97;7.97;;;8.20;99.90;;;;;;5032928;28;20961;-65
2024/02/01 01:16:30;;;;;;;11.80;9.00;;;8.10;99.90;;;;;;5032290;28;20189;-67
2024/02/01 01:18:56;;;;;;;9.17;6.93;;;8.10;99.90;;;;;;5034260;28;20445;-67
2024/02/01 01:21:22;;;;;;;9.10;7.57;;;8.10;99.90;;;;;;5033625;28;20664;-69
2024/02/01 01:23:48;;;;;;;8.47;7.57;;;8.20;99.90;;;;;;5032829;28;20748;-66
2024/02/01 01:26:19;;;;;;;10.70;8.13;;;8.20;99.90;;;;;;5031526;28;20428;-66
2024/02/01 01:28:45;;;;;;;9.37;8.40;;;8.20;99.90;;;;;;5032610;28;20187;-67
2024/02/01 01:31:10;;;;;;;8.50;7.60;;;8.30;99.90;;;;;;5033284;28;20505;-67
2024/02/01 01:33:36;;;;;;;11.10;8.47;;;8.30;99.90;;;;;;5034316;28;20300;-68
2024/02/01 01:36:01;;;;;;;8.10;7.30;;;8.30;99.90;;;;;;5033749;28;20240;-66
2024/02/01 01:38:27;;;;;;;8.70;7.80;;;8.30;99.90;;;;;;5033411;28;20197;-66
2024/02/01 01:40:53;;;;;;;9.20;7.60;;;8.30;99.90;;;;;;5033497;28;20185;-69
2024/02/01 01:43:18;;;;;;;10.23;7.93;;;8.30;99.90;;;;;;5033435;28;20186;-66
2024/02/01 01:45:45;;;;;;;8.53;7.40;;;8.30;99.90;;;;;;5033384;28;20182;-65
2024/02/01 01:48:11;;;;;;;10.93;9.13;;;8.30;99.90;;;;;;5033215;28;20214;-68
2024/02/01 01:50:37;;;;;;;8.93;7.43;;;8.30;99.90;;;;;;5034234;28;20872;-67
2024/02/01 01:53:03;;;;;;;10.10;8.03;;;8.30;99.90;;;;;;5032791;28;20472;-66
2024/02/01 01:55:29;;;;;;;11.37;8.17;;;8.30;99.90;;;;;;5033171;28;20433;-69
2024/02/01 01:57:56;;;;;;;10.70;8.73;;;8.30;99.90;;;;;;5033559;28;20515;-67
2024/02/01 02:00:23;;;;;;;11.83;7.80;;;8.30;99.90;;;;;;5032505;28;20429;-69
2024/02/01 02:02:49;;;;;;;13.30;7.57;;;8.20;99.90;;;;;;5033450;28;20494;-67
2024/02/01 02:05:15;;;;;;;9.67;7.97;;;8.30;99.90;;;;;;5031377;28;20949;-68
2024/02/01 02:07:41;;;;;;;9.37;7.67;;;8.20;99.90;;;;;;5033879;28;20534;-68
2024/02/01 02:10:14;;;;;;;9.10;7.40;;;8.20;99.90;;;;;;5033785;28;20627;-65
2024/02/01 02:12:41;;;;;;;8.63;7.10;;;8.30;99.90;;;;;;5033701;28;20551;-68
2024/02/01 02:15:08;;;;;;;14.13;6.83;;;8.30;99.90;;;;;;5033183;28;20451;-67
2024/02/01 02:17:34;;;;;;;8.50;7.33;;;8.30;99.90;;;;;;5032036;28;20519;-68
2024/02/01 02:20:25;;;;;;;10.37;8.03;;;8.30;99.90;;;;;;5033124;28;20545;-68
2024/02/01 02:22:51;;;;;;;9.13;7.50;;;8.30;99.90;;;;;;5033505;28;20214;-69
2024/02/01 02:25:17;;;;;;;9.20;7.83;;;8.30;99.90;;;;;;5032221;28;20519;-70
2024/02/01 02:27:43;;;;;;;8.13;7.33;;;8.40;99.90;;;;;;5031281;28;20971;-67
2024/02/01 02:30:12;;;;;;;8.67;7.53;;;8.40;99.90;;;;;;5033260;28;20516;-66
2024/02/01 02:32:39;;;;;;;7.20;6.50;;;8.40;99.90;;;;;;5032995;28;21090;-67
2024/02/01 02:35:13;;;;;;;8.60;7.20;;;8.40;99.90;;;;;;5032514;28;20437;-67
2024/02/01 02:37:49;;;;;;;7.30;6.40;;;8.40;99.90;;;;;;5032145;28;20429;-65
2024/02/01 02:40:17;;;;;;;9.00;7.47;;;8.40;99.90;;;;;;5032847;28;20428;-68
2024/02/01 02:42:43;;;;;;;8.00;6.47;;;8.40;99.90;;;;;;5031593;28;20479;-68
2024/02/01 02:45:10;;;;;;;7.37;6.67;;;8.40;99.90;;;;;;5032717;28;20441;-67
2024/02/01 02:47:36;;;;;;;7.77;6.97;;;8.40;99.90;;;;;;5031715;28;20483;-66
2024/02/01 02:50:05;;;;;;;8.90;7.17;;;8.40;99.90;;;;;;5032260;28;21036;-68
2024/02/01 02:52:32;;;;;;;7.30;6.70;;;8.40;99.90;;;;;;5031623;28;20487;-66
2024/02/01 02:54:58;;;;;;;7.90;6.70;;;8.50;99.90;;;;;;5032541;28;20433;-68
2024/02/01 02:57:24;;;;;;;8.90;6.90;;;8.40;99.90;;;;;;5031305;28;20426;-66
2024/02/01 02:59:49;;;;;;;7.10;6.40;;;8.50;99.90;;;;;;5032815;28;20827;-67
2024/02/01 03:02:15;;;;;;;7.13;6.50;;;8.50;99.90;;;;;;5032007;28;20186;-65
2024/02/01 03:04:41;;;;;;;7.00;6.30;;;8.50;99.90;;;;;;5031438;28;20187;-66
2024/02/01 03:07:08;;;;;;;7.73;6.43;;;8.50;99.90;;;;;;5032244;28;20223;-68
2024/02/01 03:09:37;;;;;;;7.10;6.27;;;8.50;99.90;;;;;;5030759;28;20204;-66
2024/02/01 03:12:09;;;;;;;6.90;6.20;;;8.50;99.90;;;;;;5031349;28;21395;-69
2024/02/01 03:14:42;;;;;;;6.70;6.07;;;8.50;99.90;;;;;;5031099;28;20428;-66
2024/02/01 03:17:09;;;;;;;7.07;6.20;;;8.50;99.90;;;;;;5031855;28;20438;-66
2024/02/01 03:19:35;;;;;;;7.40;5.80;;;8.60;99.90;;;;;;5030603;28;20518;-69
2024/02/01 03:22:02;;;;;;;7.17;6.47;;;8.50;99.90;;;;;;5031548;28;20440;-67
2024/02/01 03:24:31;;;;;;;7.50;6.20;;;8.60;99.90;;;;;;5031817;28;20448;-68
2024/02/01 03:27:00;;;;;;;6.67;6.07;;;8.60;99.90;;;;;;5028660;28;20457;-66
2024/02/01 03:29:28;;;;;;;7.33;6.40;;;8.60;99.90;;;;;;5029460;28;20430;-69
2024/02/01 03:31:54;;;;;;;7.30;6.40;;;8.60;99.90;;;;;;5030467;28;20455;-66
2024/02/01 03:34:27;;;;;;;7.53;6.73;;;8.60;99.90;;;;;;5028245;28;20433;-66
2024/02/01 03:36:52;;;;;;;7.30;6.60;;;8.60;99.90;;;;;;5022070;28;20429;-67
2024/02/01 03:39:22;;;;;;;7.60;6.87;;;8.60;99.90;;;;;;5025741;28;20771;-69
2024/02/01 03:41:55;;;;;;;8.47;7.53;;;8.70;99.90;;;;;;5030833;28;20284;-66
2024/02/01 03:44:25;;;;;;;9.20;7.53;;;8.70;99.90;;;;;;5030431;28;20460;-68
2024/02/01 03:46:51;;;;;;;7.33;6.63;;;8.70;99.90;;;;;;5030105;28;20547;-68
2024/02/01 03:49:19;;;;;;;9.07;8.23;;;8.70;99.90;;;;;;5028239;28;20447;-68
2024/02/01 03:51:45;;;;;;;9.67;8.67;;;8.70;99.90;;;;;;5029791;28;20535;-67
2024/02/01 03:54:11;;;;;;;9.50;8.60;;;8.70;99.90;;;;;;5031377;28;20468;-68
2024/02/01 03:56:37;;;;;;;9.90;8.90;;;8.80;99.90;;;;;;5030834;28;20803;-68
2024/02/01 03:59:03;;;;;;;9.40;8.50;;;8.70;99.90;;;;;;5031512;28;20967;-68
2024/02/01 04:01:30;;;;;;;9.40;8.50;;;8.70;99.90;;;;;;5030915;28;20433;-66
2024/02/01 04:03:56;;;;;;;10.43;8.33;;;8.70;99.90;;;;;;5031834;28;20432;-66
2024/02/01 04:06:23;;;;;;;9.93;9.03;;;8.70;99.90;;;;;;5029937;28;20470;-68
2024/02/01 04:08:50;;;;;;;9.90;9.00;;;8.70;99.90;;;;;;5030356;28;20463;-68
2024/02/01 04:11:15;;;;;;;9.20;8.33;;;8.80;99.90;;;;;;5030872;28;20444;-68
2024/02/01 04:13:41;;;;;;;11.60;10.03;;;8.80;99.90;;;;;;5030617;28;20591;-65
2024/02/01 04:16:07;;;;;;;11.00;9.67;;;8.80;99.90;;;;;;5030133;28;20251;-69
2024/02/01 04:18:33;;;;;;;11.00;9.80;;;8.80;99.90;;;;;;5031174;28;20265;-70
2024/02/01 04:20:59;;;;;;;11.20;10.10;;;8.80;99.90;;;;;;5028782;28;20197;-67
2024/02/01 04:23:25;;;;;;;11.37;10.27;;;8.80;99.90;;;;;;5030691;28;20435;-66
2024/02/01 04:25:52;;;;;;;12.03;10.80;;;8.90;99.90;;;;;;5029911;28;20440;-67
2024/02/01 04:28:18;;;;;;;12.80;11.20;;;8.90;99.90;;;;;;5029667;28;20190;-66
2024/02/01 04:30:50;;;;;;;13.50;12.10;;;8.90;99.90;;;;;;5029254;28;20475;-67
2024/02/01 04:33:18;;;;;;;12.97;11.67;;;8.90;99.90;;;;;;5031011;28;20507;-70
2024/02/01 04:35:44;;;;;;;13.13;11.83;;;8.90;99.90;;;;;;5026462;28;20429;-68
2024/02/01 04:38:10;;;;;;;15.27;11.80;;;8.90;99.90;;;;;;5059919;28;20470;-68
2024/02/01 04:40:36;;;;;;;15.27;13.67;;;8.90;99.90;;;;;;5030262;28;20190;-68
2024/02/01 04:43:02;;;;;;;14.80;13.20;;;8.90;99.90;;;;;;5029190;28;20185;-68
2024/02/01 04:45:29;;;;;;;14.07;12.57;;;8.90;99.90;;;;;;5029102;28;20671;-66
2024/02/01 04:47:55;;;;;;;15.40;13.80;;;9.00;99.90;;;;;;5029311;28;20494;-67
2024/02/01 04:50:20;;;;;;;15.30;13.60;;;9.00;99.90;;;;;;5030831;28;20436;-66
2024/02/01 04:52:47;;;;;;;17.73;14.47;;;9.00;99.90;;;;;;5029904;28;20464;-68
2024/02/01 04:55:12;;;;;;;16.03;14.30;;;9.00;99.90;;;;;;5030633;28;20193;-66
2024/02/01 04:57:39;;;;;;;14.97;13.37;;;9.10;99.90;;;;;;5030613;28;20444;-69
2024/02/01 05:00:14;;;;;;;16.87;14.20;;;9.00;99.90;;;;;;5029671;28;20296;-69
2024/02/01 05:02:46;;;;;;;15.93;14.27;;;9.00;99.90;;;;;;5030175;28;20435;-68
2024/02/01 05:05:14;;;;;;;16.17;14.10;;;9.00;99.90;;;;;;5030508;28;20973;-68
2024/02/01 05:07:41;;;;;;;17.43;14.60;;;9.10;99.90;;;;;;5030169;28;20500;-67
2024/02/01 05:10:12;;;;;;;15.40;13.80;;;9.10;99.90;;;;;;5030049;28;20445;-69
2024/02/01 05:12:42;;;;;;;19.90;15.93;;;9.10;99.90;;;;;;5030072;28;20517;-66
2024/02/01 05:15:09;;;;;;;15.90;13.97;;;9.10;99.90;;;;;;5030376;28;20420;-68
2024/02/01 05:17:36;;;;;;;15.30;13.70;;;9.10;99.90;;;;;;5028958;28;20432;-69
2024/02/01 05:20:08;;;;;;;17.40;15.60;;;9.20;99.90;;;;;;5028987;28;20445;-66
2024/02/01 05:22:35;;;;;;;18.97;16.70;;;9.20;99.90;;;;;;5030361;28;20433;-68
2024/02/01 05:25:14;;;;;;;20.93;15.80;;;9.20;99.90;;;;;;5029192;28;20437;-68
2024/02/01 05:27:45;;;;;;;19.30;14.80;;;9.20;99.90;;;;;;5026874;28;20459;-68
2024/02/01 05:30:11;;;;;;;22.23;15.47;;;9.20;99.90;;;;;;5029606;28;20918;-69
2024/02/01 05:32:48;;;;;;;20.40;15.80;;;9.20;99.90;;;;;;5029144;28;20468;-69
2024/02/01 05:35:15;;;;;;;20.13;17.00;;;9.20;99.90;;;;;;5029655;28;20502;-69
2024/02/01 05:37:46;;;;;;;19.93;16.90;;;9.20;99.90;;;;;;5029931;28;20436;-68
2024/02/01 05:40:16;;;;;;;21.07;16.97;;;9.20;99.90;;;;;;5028431;28;20425;-67
2024/02/01 05:42:44;;;;;;;20.60;16.80;;;9.30;99.90;;;;;;5026308;28;20471;-66
2024/02/01 05:45:10;;;;;;;23.83;16.77;;;9.20;99.90;;;;;;5027278;28;20456;-66
2024/02/01 05:47:36;;;;;;;20.90;16.20;;;9.20;99.90;;;;;;5028131;28;21051;-67
2024/02/01 05:50:04;;;;;;;19.57;16.53;;;9.20;99.90;;;;;;5029298;28;20462;-68
2024/02/01 05:52:33;;;;;;;21.60;15.80;;;9.20;99.90;;;;;;5033192;28;20275;-69
2024/02/01 05:54:59;;;;;;;18.93;15.03;;;9.20;99.90;;;;;;5033130;28;20478;-68
2024/02/01 05:57:24;;;;;;;16.90;15.07;;;9.20;99.90;;;;;;5032543;28;20425;-66
2024/02/01 05:59:50;;;;;;;18.87;15.10;;;9.20;99.90;;;;;;5033531;28;20194;-67
2024/02/01 06:02:16;;;;;;;20.53;15.93;;;9.20;99.90;;;;;;5029022;28;20536;-67
2024/02/01 06:04:42;;;;;;;16.13;14.13;;;9.20;99.90;;;;;;5031121;28;20218;-69
2024/02/01 06:07:09;;;;;;;20.63;14.77;;;9.20;99.90;;;;;;5029802;28;21193;-69
2024/02/01 06:09:35;;;;;;;17.20;13.90;;;9.20;99.90;;;;;;5031884;28;20437;-67
2024/02/01 06:12:01;;;;;;;15.93;13.53;;;9.20;99.90;;;;;;5032111;28;20474;-66
2024/02/01 06:14:26;;;;;;;18.33;11.87;;;9.20;99.90;;;;;;5033392;28;20182;-68
2024/02/01 06:16:52;;;;;;;18.97;12.00;;;9.20;99.90;;;;;;5033429;28;20688;-67
2024/02/01 06:19:18;;;;;;;13.17;11.17;;;9.20;99.90;;;;;;5032652;28;20189;-66
2024/02/01 06:21:44;;;;;;;13.30;11.30;;;9.20;99.90;;;;;;5033113;28;20197;-68
2024/02/01 06:24:12;;;;;;;13.73;9.70;;;9.20;99.90;;;;;;5033991;28;20955;-68
2024/02/01 06:26:38;;;;;;;11.50;10.03;;;9.10;99.90;;;;;;5033466;28;20652;-64
2024/02/01 06:29:12;;;;;;;14.73;10.87;;;9.10;99.90;;;;;;5032699;28;20501;-66
2024/02/01 06:31:39;;;;;;;12.37;10.20;;;9.10;99.90;;;;;;5032995;28;20328;-66
2024/02/01 06:34:05;;;;;;;12.37;9.27;;;9.20;99.90;;;;;;5033403;28;20482;-67
2024/02/01 06:36:39;;;;;;;14.17;9.43;;;9.10;99.90;;;;;;5028721;28;20449;-67
2024/02/01 06:42:01;;;;;;;12.97;9.03;;;9.10;99.90;;;;;;5032613;28;20428;-64
2024/02/01 06:44:28;;;;;;;10.03;7.00;;;9.10;99.90;;;;;;5031710;28;20476;-68
2024/02/01 06:54:55;;;;;;;6.13;4.43;;;9.00;99.90;;;;;;5031855;28;20421;-66
2024/02/01 06:57:26;;;;;;;7.47;3.30;;;9.00;99.90;;;;;;5031447;28;20426;-66
2024/02/01 07:02:51;;;;;;;8.23;3.20;;;8.90;99.90;;;;;;5027817;28;20423;-68
2024/02/01 07:05:46;;;;;;;7.17;2.47;;;8.90;99.90;;;;;;5026605;28;20456;-69
2024/02/01 07:08:13;;;;;;;8.37;2.87;;;8.90;99.90;;;;;;5026705;28;20455;-71
2024/02/01 07:10:47;;;;;;;9.73;3.40;;;8.80;99.90;;;;;;5031554;28;20441;-69
2024/02/01 07:13:44;;;;;;;6.23;2.63;;;8.80;99.90;;;;;;5032210;28;20471;-66
2024/02/01 07:22:02;;;;;;;7.00;3.03;;;8.70;99.90;;;;;;5009466;28;20441;-66
2024/02/01 07:24:59;;;;;;;7.00;2.70;;;8.60;99.90;;;;;;5008921;28;20442;-65
2024/02/01 07:57:55;;;;;;;11.40;3.80;;;8.30;99.90;;;;;;5031494;28;20436;-69
2024/02/01 08:00:33;;;;;;;11.80;4.10;;;8.30;99.90;;;;;;5031182;28;20444;-68
2024/02/01 08:08:30;;;;;;;13.73;4.10;;;8.20;99.90;;;;;;5030804;28;20436;-68
2024/02/01 08:10:59;;;;;;;10.63;4.13;;;8.20;99.90;;;;;;5031540;28;20460;-68
2024/02/01 08:13:26;;;;;;;9.83;4.20;;;8.20;99.90;;;;;;5030783;28;20840;-68
2024/02/01 08:15:58;;;;;;;8.17;3.70;;;8.20;99.90;;;;;;5030269;28;20494;-69
2024/02/01 08:18:26;;;;;;;9.63;3.30;;;8.20;99.90;;;;;;5030723;28;20432;-68
2024/02/01 08:20:52;;;;;;;7.57;3.43;;;8.20;99.90;;;;;;5031323;28;20437;-64
2024/02/01 08:23:22;;;;;;;8.57;2.53;;;8.30;99.90;;;;;;5031000;28;20516;-66
2024/02/01 08:25:50;;;;;;;8.57;3.10;;;8.30;99.90;;;;;;5031087;28;20436;-70
2024/02/01 08:28:18;;;;;;;11.50;2.77;;;8.50;99.90;;;;;;5030483;28;20465;-68
2024/02/01 08:30:45;;;;;;;6.60;2.60;;;8.60;99.90;;;;;;5030415;28;21197;-68
2024/02/01 08:33:15;;;;;;;11.90;3.23;;;8.80;99.90;;;;;;5031312;28;20560;-69
2024/02/01 08:35:42;;;;;;;8.37;3.00;;;9.00;99.90;;;;;;5030226;28;20548;-69
2024/02/01 08:38:08;;;;;;;9.63;2.97;;;9.20;99.90;;;;;;5030951;28;20472;-69
2024/02/01 08:40:40;;;;;;;9.80;3.10;;;9.30;99.90;;;;;;5030212;28;20462;-73
2024/02/01 08:43:07;;;;;;;11.73;2.70;;;9.50;99.90;;;;;;5031397;28;20489;-69
2024/02/01 08:45:37;;;;;;;14.07;3.90;;;9.70;99.90;;;;;;5029516;28;20436;-68
2024/02/01 08:48:04;;;;;;;16.80;3.40;;;9.90;99.90;;;;;;5030867;28;20459;-67
2024/02/01 08:50:35;;;;;;;13.20;3.10;;;10.00;99.90;;;;;;5030066;28;20440;-71
2024/02/01 08:53:01;;;;;;;7.10;3.20;;;10.20;99.90;;;;;;5031243;28;20520;-66
2024/02/01 08:55:28;;;;;;;17.30;3.47;;;10.20;99.90;;;;;;5029182;28;20425;-73
2024/02/01 08:58:08;;;;;;;9.20;2.80;;;10.30;99.90;;;;;;5030919;28;20439;-70
2024/02/01 09:00:42;;;;;;;9.47;3.07;;;10.40;99.90;;;;;;5029593;28;20440;-67
2024/02/01 09:03:19;;;;;;;10.77;3.10;;;10.50;99.90;;;;;;5031060;28;20479;-67
2024/02/01 09:05:46;;;;;;;13.53;3.63;;;10.70;99.90;;;;;;5030225;28;20932;-72
2024/02/01 09:08:35;;;;;;;12.17;3.07;;;10.70;99.90;;;;;;5030065;28;20440;-68
2024/02/01 09:11:09;;;;;;;12.90;3.43;;;10.90;99.90;;;;;;5030754;28;20486;-68
2024/02/01 09:13:36;;;;;;;13.07;3.57;;;11.00;99.90;;;;;;5029831;28;20471;-66
2024/02/01 09:16:02;;;;;;;11.83;3.00;;;11.00;99.90;;;;;;5030050;28;20441;-70
2024/02/01 09:18:28;;;;;;;13.50;2.77;;;11.10;99.90;;;;;;5030036;28;21058;-67
2024/02/01 09:20:54;;;;;;;19.23;6.50;;;11.20;99.90;;;;;;5030376;28;20442;-67
2024/02/01 09:23:22;;;;;;;12.90;3.60;;;11.30;99.90;;;;;;5030904;28;20455;-72
2024/02/01 09:25:48;;;;;;;10.87;2.90;;;11.40;99.90;;;;;;5031495;28;20185;-73
2024/02/01 09:28:14;;;;;;;13.07;3.70;;;11.50;99.90;;;;;;5032630;28;20798;-71
2024/02/01 09:30:45;;;;;;;11.57;4.23;;;11.60;99.90;;;;;;5033591;28;21113;-68
2024/02/01 09:33:19;;;;;;;8.83;3.17;;;11.70;99.90;;;;;;5034203;28;20862;-74
2024/02/01 09:35:46;;;;;;;12.83;3.60;;;11.80;99.90;;;;;;5032533;28;20443;-68
2024/02/01 09:38:12;;;;;;;12.00;3.80;;;11.90;99.90;;;;;;5034122;28;20437;-67
2024/02/01 09:40:41;;;;;;;12.50;4.33;;;12.00;99.90;;;;;;5032427;28;20425;-65
2024/02/01 09:43:17;;;;;;;21.70;3.93;;;12.10;99.90;;;;;;5034454;28;20436;-72
2024/02/01 09:45:47;;;;;;;12.17;3.30;;;12.10;99.90;;;;;;5031879;28;20542;-68
2024/02/01 09:48:16;;;;;;;11.17;2.93;;;12.20;99.90;;;;;;5033877;28;20489;-66
2024/02/01 09:50:55;;;;;;;15.67;3.83;;;12.20;99.90;;;;;;5032818;28;20487;-68
2024/02/01 09:53:25;;;;;;;10.00;3.13;;;12.30;99.90;;;;;;5033812;28;20480;-70
2024/02/01 09:55:53;;;;;;;12.30;3.10;;;12.40;99.90;;;;;;5033100;28;20459;-71
2024/02/01 09:58:19;;;;;;;12.33;3.47;;;12.50;99.90;;;;;;5033412;28;20436;-68
2024/02/01 10:00:46;;;;;;;11.33;3.60;;;12.60;99.90;;;;;;5032954;28;20494;-71
2024/02/01 10:03:15;;;;;;;10.77;2.80;;;12.60;99.90;;;;;;5033724;28;20433;-68
2024/02/01 10:05:42;;;;;;;18.07;4.30;;;12.80;99.90;;;;;;5032270;28;20842;-69
2024/02/01 10:08:13;;;;;;;12.63;3.97;;;12.90;99.90;;;;;;5032838;28;20463;-72
2024/02/01 10:10:41;;;;;;;14.43;3.37;;;13.10;99.90;;;;;;5032142;28;20495;-69
2024/02/01 10:13:13;;;;;;;14.93;3.50;;;13.30;99.90;;;;;;5033776;28;20565;-68
2024/02/01 10:15:43;;;;;;;10.83;3.60;;;13.50;99.90;;;;;;5032178;28;20436;-74
2024/02/01 10:18:17;;;;;;;9.53;3.00;;;13.70;99.90;;;;;;5032495;28;20444;-70
2024/02/01 10:20:51;;;;;;;15.50;2.80;;;13.70;99.90;;;;;;5031516;28;20471;-67
2024/02/01 10:23:19;;;;;;;10.57;3.53;;;13.70;99.90;;;;;;5033688;28;20429;-74
2024/02/01 10:25:56;;;;;;;10.70;3.17;;;13.60;99.90;;;;;;5031548;28;20427;-69
2024/02/01 10:28:33;;;;;;;11.60;2.93;;;13.50;99.90;;;;;;5031277;28;20467;-67
2024/02/01 10:31:00;;;;;;;14.20;3.30;;;13.30;99.90;;;;;;5032080;28;20995;-72
2024/02/01 10:33:29;;;;;;;13.33;3.43;;;13.20;99.90;;;;;;5033403;28;20476;-69
2024/02/01 10:35:59;;;;;;;9.30;3.30;;;13.00;99.90;;;;;;5031503;28;20440;-68
2024/02/01 10:38:26;;;;;;;7.70;2.87;;;12.80;99.90;;;;;;5032882;28;20974;-71
2024/02/01 10:40:52;;;;;;;13.77;3.57;;;12.50;99.90;;;;;;5031608;28;20437;-68
2024/02/01 10:43:25;;;;;;;10.30;3.37;;;12.20;99.90;;;;;;5032469;28;20921;-70
2024/02/01 10:46:05;;;;;;;16.00;3.40;;;12.10;99.90;;;;;;5030971;28;20437;-71
2024/02/01 10:48:42;;;;;;;11.27;3.20;;;11.90;99.90;;;;;;5032096;28;20547;-68
2024/02/01 10:51:11;;;;;;;14.90;2.90;;;11.80;99.90;;;;;;5031144;28;20958;-73
2024/02/01 10:53:45;;;;;;;9.13;3.43;;;11.80;99.90;;;;;;5032851;28;20464;-67
2024/02/01 10:56:16;;;;;;;15.27;3.57;;;11.70;99.90;;;;;;5031771;28;20429;-73
2024/02/01 10:58:47;;;;;;;13.10;2.87;;;11.60;99.90;;;;;;5031795;28;20524;-68
2024/02/01 11:01:18;;;;;;;11.90;3.77;;;11.50;99.90;;;;;;5031258;28;20460;-68
2024/02/01 11:03:57;;;;;;;9.60;2.63;;;11.30;99.90;;;;;;5031300;28;20432;-69
2024/02/01 11:06:27;;;;;;;13.63;3.33;;;11.20;99.90;;;;;;5031684;28;20426;-68
2024/02/01 11:08:56;;;;;;;13.83;2.90;;;11.10;99.90;;;;;;5046446;28;20448;-71
2024/02/01 11:11:33;;;;;;;7.27;2.53;;;11.00;99.90;;;;;;5031836;28;20768;-71
2024/02/01 11:14:06;;;;;;;13.63;3.23;;;11.40;99.90;;;;;;5030569;28;21243;-67
2024/02/01 11:16:40;;;;;;;9.40;3.13;;;11.50;99.90;;;;;;5031611;28;20440;-69
2024/02/01 11:19:12;;;;;;;12.30;3.13;;;11.30;99.90;;;;;;5031342;28;20443;-70
2024/02/01 11:21:50;;;;;;;10.60;3.10;;;11.20;99.90;;;;;;5031895;28;20447;-69
2024/02/01 11:24:20;;;;;;;15.80;3.70;;;11.10;99.90;;;;;;5030902;28;20435;-68
2024/02/01 11:26:47;;;;;;;12.97;3.30;;;11.00;99.90;;;;;;5030992;28;20487;-71
2024/02/01 11:29:21;;;;;;;15.50;3.23;;;11.00;99.90;;;;;;5027943;28;20433;-70
2024/02/01 11:31:48;;;;;;;9.47;3.50;;;11.10;99.90;;;;;;5031255;28;20452;-71
2024/02/01 11:34:15;;;;;;;11.87;3.70;;;11.40;99.90;;;;;;5030682;28;20562;-70
2024/02/01 11:36:43;;;;;;;14.50;3.33;;;11.80;99.90;;;;;;5031107;28;20524;-69
2024/02/01 11:39:11;;;;;;;11.13;3.60;;;11.90;99.90;;;;;;5030239;28;20452;-68
2024/02/01 11:41:37;;;;;;;13.37;3.90;;;11.80;99.90;;;;;;5031372;28;20853;-70
2024/02/01 11:44:04;;;;;;;12.73;4.47;;;11.80;99.90;;;;;;5029065;28;20436;-66
2024/02/01 11:46:30;;;;;;;16.10;3.50;;;11.90;99.90;;;;;;5029871;28;20445;-70
2024/02/01 11:48:56;;;;;;;14.57;4.03;;;12.10;99.90;;;;;;5030355;28;20794;-68
2024/02/01 11:51:25;;;;;;;15.77;3.27;;;12.20;99.90;;;;;;5030577;28;20433;-68
2024/02/01 11:53:52;;;;;;;12.67;3.40;;;12.30;99.90;;;;;;5030906;28;20476;-71
2024/02/01 11:56:21;;;;;;;8.13;3.10;;;12.40;99.90;;;;;;5030307;28;20421;-67
2024/02/01 11:58:48;;;;;;;8.37;3.00;;;12.70;99.90;;;;;;5031462;28;20563;-73
2024/02/01 12:01:14;;;;;;;9.80;3.20;;;14.00;99.90;;;;;;5029450;28;20494;-65
2024/02/01 12:03:50;;;;;;;10.90;2.70;;;16.10;99.90;;;;;;5031128;28;20511;-71
2024/02/01 12:06:22;;;;;;;13.20;3.43;;;18.10;99.90;;;;;;5029123;28;20431;-69
2024/02/01 12:08:48;;;;;;;11.63;3.90;;;19.20;97.70;;;;;;5031502;28;20454;-71
2024/02/01 12:11:14;;;;;;;10.80;3.50;;;19.30;94.80;;;;;;5028979;28;20944;-71
2024/02/01 12:13:46;;;;;;;8.63;3.10;;;19.20;96.50;;;;;;5030949;28;20465;-68
2024/02/01 12:16:34;;;;;;;8.47;2.83;;;19.40;94.70;;;;;;5029048;28;21042;-71
2024/02/01 12:19:00;;;;;;;10.10;3.33;;;19.60;93.10;;;;;;5029869;28;20440;-67
2024/02/01 12:21:26;;;;;;;9.73;2.77;;;19.90;92.90;;;;;;5030432;28;20438;-74
2024/02/01 12:23:59;;;;;;;10.80;3.80;;;20.20;91.20;;;;;;5031745;28;20433;-73
2024/02/01 12:26:28;;;;;;;10.07;3.20;;;20.30;91.50;;;;;;5030477;28;20497;-69
2024/02/01 12:28:55;;;;;;;13.90;3.90;;;20.40;91.40;;;;;;5027793;28;20429;-70
2024/02/01 12:31:24;;;;;;;10.87;2.90;;;20.10;87.40;;;;;;5029729;28;20519;-73
2024/02/01 12:33:50;;;;;;;14.63;3.50;;;19.70;86.40;;;;;;5030438;28;20488;-72
2024/02/01 12:36:19;;;;;;;13.33;3.57;;;19.20;88.90;;;;;;5028147;28;20465;-71
2024/02/01 12:38:44;;;;;;;10.47;3.20;;;18.60;88.00;;;;;;5030249;28;20435;-66
2024/02/01 12:41:17;;;;;;;8.03;3.57;;;18.00;89.60;;;;;;5029718;28;20429;-67
2024/02/01 12:43:44;;;;;;;14.97;4.50;;;17.20;90.20;;;;;;5030711;28;20186;-70
2024/02/01 12:46:11;;;;;;;9.27;3.40;;;16.60;92.10;;;;;;5028416;28;20540;-73
2024/02/01 12:48:37;;;;;;;6.07;3.20;;;16.20;94.40;;;;;;5030555;28;20459;-70
2024/02/01 12:51:07;;;;;;;11.17;3.87;;;16.00;94.80;;;;;;5029056;28;20441;-67
2024/02/01 12:53:34;;;;;;;6.13;3.17;;;15.90;95.10;;;;;;5030932;28;20480;-70
2024/02/01 12:56:00;;;;;;;11.80;3.83;;;16.00;96.20;;;;;;5029207;28;20527;-68
2024/02/01 12:58:25;;;;;;;11.20;3.47;;;15.80;94.40;;;;;;5062107;28;20504;-66
2024/02/01 13:00:52;;;;;;;8.60;4.50;;;15.50;94.80;;;;;;5033347;28;20198;-69
2024/02/01 13:03:18;;;;;;;11.87;3.37;;;15.10;96.40;;;;;;5033763;28;20182;-72
2024/02/01 13:05:44;;;;;;;10.90;4.00;;;14.80;96.00;;;;;;5032793;28;20424;-73
2024/02/01 13:08:14;;;;;;;12.40;3.17;;;14.60;97.70;;;;;;5034267;28;20224;-71
2024/02/01 13:10:46;;;;;;;14.97;2.93;;;14.40;98.80;;;;;;5034834;28;20194;-74
2024/02/01 13:13:12;;;;;;;9.87;2.80;;;14.10;97.70;;;;;;5034108;28;20871;-68
2024/02/01 13:15:39;;;;;;;13.23;4.30;;;13.90;97.80;;;;;;5034560;28;20440;-69
2024/02/01 13:18:11;;;;;;;12.37;3.90;;;13.80;98.80;;;;;;5034199;28;20433;-68
2024/02/01 13:20:38;;;;;;;11.57;4.20;;;13.90;99.90;;;;;;5034743;28;20524;-69
2024/02/01 13:23:08;;;;;;;13.30;3.10;;;14.00;99.90;;;;;;5034763;28;20439;-73
2024/02/01 13:25:41;;;;;;;11.93;3.70;;;13.90;98.70;;;;;;5034428;28;20863;-69
2024/02/01 13:28:10;;;;;;;14.57;4.10;;;13.70;99.00;;;;;;5032870;28;20439;-69
2024/02/01 13:30:43;;;;;;;11.73;3.30;;;13.40;99.10;;;;;;5033393;28;20424;-70
2024/02/01 13:33:13;;;;;;;12.10;4.20;;;13.40;99.90;;;;;;5034041;28;20464;-70
2024/02/01 13:35:39;;;;;;;9.93;3.43;;;13.30;99.90;;;;;;5034165;28;20918;-67
2024/02/01 13:38:06;;;;;;;10.20;3.27;;;13.20;99.90;;;;;;5034674;28;20463;-70
2024/02/01 13:40:34;;;;;;;12.03;3.70;;;13.10;99.40;;;;;;5034379;28;21348;-72
2024/02/01 13:43:01;;;;;;;10.17;2.90;;;12.90;99.90;;;;;;5035227;28;21056;-67
2024/02/01 13:45:27;;;;;;;9.60;3.10;;;12.70;99.90;;;;;;5032945;28;20420;-71
2024/02/01 13:47:56;;;;;;;7.83;3.40;;;12.50;99.90;;;;;;5034452;28;20591;-73
2024/02/01 13:50:24;;;;;;;11.80;3.20;;;12.40;99.90;;;;;;5034405;28;21416;-71
2024/02/01 13:52:51;;;;;;;8.47;3.90;;;12.20;99.90;;;;;;5035050;28;20958;-66
2024/02/01 13:55:17;;;;;;;11.63;4.40;;;12.10;99.90;;;;;;5032368;28;20439;-72
2024/02/01 13:57:42;;;;;;;11.53;4.27;;;12.00;99.90;;;;;;5035487;28;20440;-72
2024/02/01 14:00:15;;;;;;;8.93;3.50;;;11.80;99.90;;;;;;5035615;28;20197;-70
2024/02/01 14:02:48;;;;;;;10.90;4.00;;;11.70;99.90;;;;;;5036036;28;20674;-71
2024/02/01 14:05:16;;;;;;;9.47;4.00;;;11.70;99.90;;;;;;5035414;28;20464;-72
2024/02/01 14:07:42;;;;;;;13.90;3.50;;;11.60;99.90;;;;;;5033550;28;20987;-69
2024/02/01 14:10:09;;;;;;;7.70;3.47;;;11.60;99.90;;;;;;5033764;28;20493;-65
2024/02/01 14:12:39;;;;;;;11.27;3.97;;;11.60;99.90;;;;;;5033574;28;20217;-67
2024/02/01 14:15:06;;;;;;;10.47;5.23;;;11.50;99.90;;;;;;5034415;28;20421;-68